Fonvind — JWYN — position and weather

sailwx.info

Track history (hours):
 
Tides and Currents Weather Stations Pressure Air Temp Water Temp Dewpoint Dewpoint Depression Visibility Wind Speed Wind Dir Waves Ship Positions

Fonvind

Last reported at 2015-Dec-13 20:05 UTC. Time now 2016-Feb-13 02:35 UTC.
Position N 66°21' E 012°57'.
Warning: this ship's position is months out of date.

Length 34 m; draft 3.5 m.

Type: Cargo ship. MMSI: 257322400.

Date/timePositionNaut miles runAvg speedWind from/ knotsBaromVisibWave heightAir tempDewpointWater temp
2015-Dec-13 20:05N 66°21' E 012°57'31 1.0
2015-Dec-12 12:29N 66°51' E 013°19'8 9.1
2015-Dec-12 11:33N 66°58' E 013°31'9 9.2
2015-Dec-12 10:33N 67°03' E 013°50'2 2.3
2015-Dec-12 09:33N 67°05' E 013°51'1 0.8
2015-Dec-12 08:33N 67°06' E 013°52'0 0.0
2015-Dec-12 07:31N 67°06' E 013°52'0 0.0
2015-Dec-12 06:33N 67°06' E 013°52'0 0.0
2015-Dec-12 05:33N 67°06' E 013°52'0 0.0
2015-Dec-12 04:33N 67°06' E 013°52'0 0.0
2015-Dec-12 03:33N 67°06' E 013°52'0 0.0
2015-Dec-12 02:31N 67°06' E 013°52'0 0.0
2015-Dec-12 01:33N 67°06' E 013°52'0 0.0
2015-Dec-12 00:33N 67°06' E 013°52'0 0.0
2015-Dec-11 23:33N 67°06' E 013°52'0 0.0
2015-Dec-11 22:33N 67°06' E 013°52'0 0.0
2015-Dec-11 21:33N 67°06' E 013°52'0 0.0
2015-Dec-11 20:33N 67°06' E 013°52'0 0.3
2015-Dec-11 19:34N 67°06' E 013°53'1 1.1
2015-Dec-11 18:33N 67°05' E 013°51'0 0.0
2015-Dec-11 17:33N 67°05' E 013°51'0 0.0
2015-Dec-11 16:33N 67°05' E 013°51'0 0.1
2015-Dec-11 15:33N 67°05' E 013°51'0 0.0
2015-Dec-11 14:33N 67°05' E 013°51'0 0.0
2015-Dec-11 13:33N 67°05' E 013°51'0 0.0
2015-Dec-11 12:33N 67°05' E 013°51'0 0.0
2015-Dec-11 11:33N 67°05' E 013°51'0 0.0
2015-Dec-11 10:33N 67°05' E 013°51'0 0.1
2015-Dec-11 09:33N 67°05' E 013°51'0 0.0
2015-Dec-11 08:33N 67°05' E 013°51'0 0.0
2015-Dec-11 07:33N 67°05' E 013°51'0 0.0
2015-Dec-11 06:33N 67°05' E 013°51'0 0.0
2015-Dec-11 05:33N 67°05' E 013°51'0 0.0
2015-Dec-11 04:33N 67°05' E 013°51'0 0.0
2015-Dec-11 03:33N 67°05' E 013°51'0 0.0
2015-Dec-11 02:33N 67°05' E 013°51'0 0.0
2015-Dec-11 01:33N 67°05' E 013°51'0 0.0
2015-Dec-11 00:33N 67°05' E 013°51'0 0.0
2015-Dec-10 23:33N 67°05' E 013°51'0 0.0
2015-Dec-10 22:33N 67°05' E 013°51'0 0.0
2015-Dec-10 21:33N 67°05' E 013°51'0 0.0
2015-Dec-10 20:33N 67°05' E 013°51'0 0.0
2015-Dec-10 19:33N 67°05' E 013°51'0 0.1
2015-Dec-10 18:22N 67°05' E 013°51'0 0.0
2015-Dec-10 17:33N 67°05' E 013°51'0 0.0
2015-Dec-10 16:31N 67°05' E 013°51'0 0.0
2015-Dec-10 15:33N 67°05' E 013°51'0 0.1
2015-Dec-10 14:33N 67°05' E 013°52'0 0.0
2015-Dec-10 13:33N 67°05' E 013°52'0 0.0
2015-Dec-10 12:33N 67°05' E 013°52'0 0.0
2015-Dec-10 11:33N 67°05' E 013°52'0 0.0
2015-Dec-10 10:33N 67°05' E 013°52'0 0.1
2015-Dec-10 09:33N 67°05' E 013°51'0 0.0
2015-Dec-10 08:33N 67°05' E 013°51'0 0.0
2015-Dec-10 07:33N 67°05' E 013°51'0 0.0
2015-Dec-10 06:33N 67°05' E 013°51'1 0.8
2015-Dec-10 05:33N 67°05' E 013°53'4 3.9
2015-Dec-10 04:28N 67°04' E 014°04'0 0.0
2015-Dec-10 03:33N 67°04' E 014°04'0 0.0
2015-Dec-10 02:32N 67°04' E 014°04'0 0.0
2015-Dec-10 01:30N 67°04' E 014°04'0 0.0
2015-Dec-10 00:33N 67°04' E 014°04'0 0.0
2015-Dec-09 23:33N 67°04' E 014°04'0 0.0
2015-Dec-09 22:33N 67°04' E 014°04'0 0.0
2015-Dec-09 21:33N 67°04' E 014°04'0 0.0
2015-Dec-09 20:33N 67°04' E 014°04'0 0.0
2015-Dec-09 19:33N 67°04' E 014°04'0 0.0
2015-Dec-09 18:33N 67°04' E 014°04'0 0.0
2015-Dec-09 17:33N 67°04' E 014°04'0 0.0
2015-Dec-09 16:33N 67°04' E 014°04'0 0.0
2015-Dec-09 15:33N 67°04' E 014°04'0 0.0
2015-Dec-09 14:33N 67°04' E 014°04'0 0.0
2015-Dec-09 13:29N 67°04' E 014°04'0 0.0
2015-Dec-09 12:31N 67°04' E 014°04'0 0.0
2015-Dec-09 11:32N 67°04' E 014°04'0 0.0
2015-Dec-09 10:33N 67°04' E 014°04'0 0.0
2015-Dec-09 09:33N 67°04' E 014°04'0 0.0
2015-Dec-09 08:25N 67°04' E 014°04'0 0.0
2015-Dec-09 01:26N 67°04' E 014°04'0 0.0
2015-Dec-09 00:33N 67°04' E 014°04'0 0.0
2015-Dec-08 23:33N 67°04' E 014°04'0 0.0
2015-Dec-08 22:33N 67°04' E 014°04'0 0.0
2015-Dec-08 21:33N 67°04' E 014°04'0 0.0
2015-Dec-08 20:33N 67°04' E 014°04'0 0.0
2015-Dec-08 19:33N 67°04' E 014°04'0 0.0
2015-Dec-08 18:33N 67°04' E 014°04'3 2.8
2015-Dec-08 17:33N 67°05' E 013°57'2 2.2
2015-Dec-08 16:33N 67°05' E 013°51'0 0.0
2015-Dec-08 15:33N 67°05' E 013°51'0 0.0
2015-Dec-08 14:33N 67°05' E 013°51'0 0.0
2015-Dec-08 13:33N 67°05' E 013°51'0 0.0
2015-Dec-08 12:33N 67°05' E 013°51'0 0.0
2015-Dec-08 11:33N 67°05' E 013°51'0 0.0
2015-Dec-08 10:33N 67°05' E 013°51'0 0.0
2015-Dec-08 09:33N 67°05' E 013°51'0 0.0
2015-Dec-08 08:33N 67°05' E 013°51'4 4.1
2015-Dec-08 07:33N 67°01' E 013°46'9 7.9
2015-Dec-08 06:26N 66°55' E 013°30'27 8.4
2015-Dec-08 03:13N 66°31' E 012°58'6 9.1
2015-Dec-08 02:32N 66°25' E 012°59'  
Track history (hours):
 
Tides and Currents Weather Stations Pressure Air Temp Water Temp Dewpoint Dewpoint Depression Visibility Wind Speed Wind Dir Waves Ship Positions

Fonvind

Last reported at 2015-Dec-13 20:05 UTC. Time now 2016-Feb-13 02:35 UTC.
Position N 66°21' E 012°57'.
Warning: this ship's position is months out of date.

Length 34 m; draft 3.5 m.

Type: Cargo ship. MMSI: 257322400.

Date/timePositionNaut miles runAvg speedWind from/ knotsBaromVisibWave heightAir tempDewpointWater temp
2015-Dec-13 20:05N 66°21' E 012°57'31 1.0
2015-Dec-12 12:29N 66°51' E 013°19'8 9.1
2015-Dec-12 11:33N 66°58' E 013°31'9 9.2
2015-Dec-12 10:33N 67°03' E 013°50'2 2.3
2015-Dec-12 09:33N 67°05' E 013°51'1 0.8
2015-Dec-12 08:33N 67°06' E 013°52'0 0.0
2015-Dec-12 07:31N 67°06' E 013°52'0 0.0
2015-Dec-12 06:33N 67°06' E 013°52'0 0.0
2015-Dec-12 05:33N 67°06' E 013°52'0 0.0
2015-Dec-12 04:33N 67°06' E 013°52'0 0.0
2015-Dec-12 03:33N 67°06' E 013°52'0 0.0
2015-Dec-12 02:31N 67°06' E 013°52'0 0.0
2015-Dec-12 01:33N 67°06' E 013°52'0 0.0
2015-Dec-12 00:33N 67°06' E 013°52'0 0.0
2015-Dec-11 23:33N 67°06' E 013°52'0 0.0
2015-Dec-11 22:33N 67°06' E 013°52'0 0.0
2015-Dec-11 21:33N 67°06' E 013°52'0 0.0
2015-Dec-11 20:33N 67°06' E 013°52'0 0.3
2015-Dec-11 19:34N 67°06' E 013°53'1 1.1
2015-Dec-11 18:33N 67°05' E 013°51'0 0.0
2015-Dec-11 17:33N 67°05' E 013°51'0 0.0
2015-Dec-11 16:33N 67°05' E 013°51'0 0.1
2015-Dec-11 15:33N 67°05' E 013°51'0 0.0
2015-Dec-11 14:33N 67°05' E 013°51'0 0.0
2015-Dec-11 13:33N 67°05' E 013°51'0 0.0
2015-Dec-11 12:33N 67°05' E 013°51'0 0.0
2015-Dec-11 11:33N 67°05' E 013°51'0 0.0
2015-Dec-11 10:33N 67°05' E 013°51'0 0.1
2015-Dec-11 09:33N 67°05' E 013°51'0 0.0
2015-Dec-11 08:33N 67°05' E 013°51'0 0.0
2015-Dec-11 07:33N 67°05' E 013°51'0 0.0
2015-Dec-11 06:33N 67°05' E 013°51'0 0.0
2015-Dec-11 05:33N 67°05' E 013°51'0 0.0
2015-Dec-11 04:33N 67°05' E 013°51'0 0.0
2015-Dec-11 03:33N 67°05' E 013°51'0 0.0
2015-Dec-11 02:33N 67°05' E 013°51'0 0.0
2015-Dec-11 01:33N 67°05' E 013°51'0 0.0
2015-Dec-11 00:33N 67°05' E 013°51'0 0.0
2015-Dec-10 23:33N 67°05' E 013°51'0 0.0
2015-Dec-10 22:33N 67°05' E 013°51'0 0.0
2015-Dec-10 21:33N 67°05' E 013°51'0 0.0
2015-Dec-10 20:33N 67°05' E 013°51'0 0.0
2015-Dec-10 19:33N 67°05' E 013°51'0 0.1
2015-Dec-10 18:22N 67°05' E 013°51'0 0.0
2015-Dec-10 17:33N 67°05' E 013°51'0 0.0
2015-Dec-10 16:31N 67°05' E 013°51'0 0.0
2015-Dec-10 15:33N 67°05' E 013°51'0 0.1
2015-Dec-10 14:33N 67°05' E 013°52'0 0.0
2015-Dec-10 13:33N 67°05' E 013°52'0 0.0
2015-Dec-10 12:33N 67°05' E 013°52'0 0.0
2015-Dec-10 11:33N 67°05' E 013°52'0 0.0
2015-Dec-10 10:33N 67°05' E 013°52'0 0.1
2015-Dec-10 09:33N 67°05' E 013°51'0 0.0
2015-Dec-10 08:33N 67°05' E 013°51'0 0.0
2015-Dec-10 07:33N 67°05' E 013°51'0 0.0
2015-Dec-10 06:33N 67°05' E 013°51'1 0.8
2015-Dec-10 05:33N 67°05' E 013°53'4 3.9
2015-Dec-10 04:28N 67°04' E 014°04'0 0.0
2015-Dec-10 03:33N 67°04' E 014°04'0 0.0
2015-Dec-10 02:32N 67°04' E 014°04'0 0.0
2015-Dec-10 01:30N 67°04' E 014°04'0 0.0
2015-Dec-10 00:33N 67°04' E 014°04'0 0.0
2015-Dec-09 23:33N 67°04' E 014°04'0 0.0
2015-Dec-09 22:33N 67°04' E 014°04'0 0.0
2015-Dec-09 21:33N 67°04' E 014°04'0 0.0
2015-Dec-09 20:33N 67°04' E 014°04'0 0.0
2015-Dec-09 19:33N 67°04' E 014°04'0 0.0
2015-Dec-09 18:33N 67°04' E 014°04'0 0.0
2015-Dec-09 17:33N 67°04' E 014°04'0 0.0
2015-Dec-09 16:33N 67°04' E 014°04'0 0.0
2015-Dec-09 15:33N 67°04' E 014°04'0 0.0
2015-Dec-09 14:33N 67°04' E 014°04'0 0.0
2015-Dec-09 13:29N 67°04' E 014°04'0 0.0
2015-Dec-09 12:31N 67°04' E 014°04'0 0.0
2015-Dec-09 11:32N 67°04' E 014°04'0 0.0
2015-Dec-09 10:33N 67°04' E 014°04'0 0.0
2015-Dec-09 09:33N 67°04' E 014°04'0 0.0
2015-Dec-09 08:25N 67°04' E 014°04'0 0.0
2015-Dec-09 01:26N 67°04' E 014°04'0 0.0
2015-Dec-09 00:33N 67°04' E 014°04'0 0.0
2015-Dec-08 23:33N 67°04' E 014°04'0 0.0
2015-Dec-08 22:33N 67°04' E 014°04'0 0.0
2015-Dec-08 21:33N 67°04' E 014°04'0 0.0
2015-Dec-08 20:33N 67°04' E 014°04'0 0.0
2015-Dec-08 19:33N 67°04' E 014°04'0 0.0
2015-Dec-08 18:33N 67°04' E 014°04'3 2.8
2015-Dec-08 17:33N 67°05' E 013°57'2 2.2
2015-Dec-08 16:33N 67°05' E 013°51'0 0.0
2015-Dec-08 15:33N 67°05' E 013°51'0 0.0
2015-Dec-08 14:33N 67°05' E 013°51'0 0.0
2015-Dec-08 13:33N 67°05' E 013°51'0 0.0
2015-Dec-08 12:33N 67°05' E 013°51'0 0.0
2015-Dec-08 11:33N 67°05' E 013°51'0 0.0
2015-Dec-08 10:33N 67°05' E 013°51'0 0.0
2015-Dec-08 09:33N 67°05' E 013°51'0 0.0
2015-Dec-08 08:33N 67°05' E 013°51'4 4.1
2015-Dec-08 07:33N 67°01' E 013°46'9 7.9
2015-Dec-08 06:26N 66°55' E 013°30'27 8.4
2015-Dec-08 03:13N 66°31' E 012°58'6 9.1
2015-Dec-08 02:32N 66°25' E 012°59'  

Dump ship's entire track history